sensor_id;sensor_type;location;lat;lon;timestamp;temperature;humidity
45104;DHT22;30865;51.288;4.572;2023-07-08T00:01:49;22.50;49.30
45104;DHT22;30865;51.288;4.572;2023-07-08T00:04:15;22.50;48.60
45104;DHT22;30865;51.288;4.572;2023-07-08T00:06:40;22.50;48.20
45104;DHT22;30865;51.288;4.572;2023-07-08T00:09:10;22.50;48.00
45104;DHT22;30865;51.288;4.572;2023-07-08T00:11:39;22.60;47.10
45104;DHT22;30865;51.288;4.572;2023-07-08T00:14:05;22.60;47.20
45104;DHT22;30865;51.288;4.572;2023-07-08T00:16:30;22.60;47.60
45104;DHT22;30865;51.288;4.572;2023-07-08T00:18:56;22.60;47.70
45104;DHT22;30865;51.288;4.572;2023-07-08T00:21:22;22.60;47.70
45104;DHT22;30865;51.288;4.572;2023-07-08T00:23:48;22.50;47.70
45104;DHT22;30865;51.288;4.572;2023-07-08T00:28:44;22.40;47.70
45104;DHT22;30865;51.288;4.572;2023-07-08T00:31:10;22.30;47.90
45104;DHT22;30865;51.288;4.572;2023-07-08T00:33:36;22.30;48.40
45104;DHT22;30865;51.288;4.572;2023-07-08T00:36:01;22.30;48.60
45104;DHT22;30865;51.288;4.572;2023-07-08T00:38:30;22.20;48.80
45104;DHT22;30865;51.288;4.572;2023-07-08T00:41:06;22.20;49.00
45104;DHT22;30865;51.288;4.572;2023-07-08T00:43:40;22.20;49.00
45104;DHT22;30865;51.288;4.572;2023-07-08T00:51:38;22.10;49.20
45104;DHT22;30865;51.288;4.572;2023-07-08T00:54:16;22.10;49.50
45104;DHT22;30865;51.288;4.572;2023-07-08T00:56:46;22.00;49.60
45104;DHT22;30865;51.288;4.572;2023-07-08T00:59:34;21.90;49.60
45104;DHT22;30865;51.288;4.572;2023-07-08T01:02:04;21.90;50.00
45104;DHT22;30865;51.288;4.572;2023-07-08T01:04:46;21.80;50.30
45104;DHT22;30865;51.288;4.572;2023-07-08T01:07:15;21.60;50.70
45104;DHT22;30865;51.288;4.572;2023-07-08T01:09:48;21.60;51.10
45104;DHT22;30865;51.288;4.572;2023-07-08T01:12:19;21.50;51.50
45104;DHT22;30865;51.288;4.572;2023-07-08T01:14:48;21.60;51.40
45104;DHT22;30865;51.288;4.572;2023-07-08T01:17:14;21.60;51.50
45104;DHT22;30865;51.288;4.572;2023-07-08T01:19:47;21.60;51.50
45104;DHT22;30865;51.288;4.572;2023-07-08T01:22:16;21.50;51.90
45104;DHT22;30865;51.288;4.572;2023-07-08T01:24:44;21.50;52.10
45104;DHT22;30865;51.288;4.572;2023-07-08T01:27:13;21.40;52.30
45104;DHT22;30865;51.288;4.572;2023-07-08T01:29:39;21.40;52.80
45104;DHT22;30865;51.288;4.572;2023-07-08T01:32:04;21.40;52.80
45104;DHT22;30865;51.288;4.572;2023-07-08T01:34:32;21.30;53.20
45104;DHT22;30865;51.288;4.572;2023-07-08T01:36:59;21.20;53.30
45104;DHT22;30865;51.288;4.572;2023-07-08T01:39:29;21.10;53.40
45104;DHT22;30865;51.288;4.572;2023-07-08T01:41:56;21.20;53.50
45104;DHT22;30865;51.288;4.572;2023-07-08T01:44:29;21.10;53.60
45104;DHT22;30865;51.288;4.572;2023-07-08T01:46:58;21.10;53.40
45104;DHT22;30865;51.288;4.572;2023-07-08T01:49:24;21.00;54.40
45104;DHT22;30865;51.288;4.572;2023-07-08T01:51:50;20.80;54.80
45104;DHT22;30865;51.288;4.572;2023-07-08T01:54:16;20.60;55.00
45104;DHT22;30865;51.288;4.572;2023-07-08T01:56:41;20.60;55.20
45104;DHT22;30865;51.288;4.572;2023-07-08T01:59:07;20.60;54.90
45104;DHT22;30865;51.288;4.572;2023-07-08T02:01:32;20.70;55.00
45104;DHT22;30865;51.288;4.572;2023-07-08T02:03:58;20.60;54.90
45104;DHT22;30865;51.288;4.572;2023-07-08T02:06:23;20.70;54.50
45104;DHT22;30865;51.288;4.572;2023-07-08T02:08:49;20.60;54.90
45104;DHT22;30865;51.288;4.572;2023-07-08T02:11:16;20.50;55.30
45104;DHT22;30865;51.288;4.572;2023-07-08T02:13:42;20.40;55.70
45104;DHT22;30865;51.288;4.572;2023-07-08T02:16:10;20.20;55.90
45104;DHT22;30865;51.288;4.572;2023-07-08T02:18:36;20.20;56.20
45104;DHT22;30865;51.288;4.572;2023-07-08T02:21:01;20.20;56.20
45104;DHT22;30865;51.288;4.572;2023-07-08T02:23:27;20.20;56.20
45104;DHT22;30865;51.288;4.572;2023-07-08T02:25:54;20.20;56.20
45104;DHT22;30865;51.288;4.572;2023-07-08T02:28:19;20.00;56.30
45104;DHT22;30865;51.288;4.572;2023-07-08T02:30:45;20.00;56.70
45104;DHT22;30865;51.288;4.572;2023-07-08T02:33:14;20.00;56.70
45104;DHT22;30865;51.288;4.572;2023-07-08T02:35:43;20.10;56.80
45104;DHT22;30865;51.288;4.572;2023-07-08T02:38:08;19.90;57.00
45104;DHT22;30865;51.288;4.572;2023-07-08T02:40:34;19.80;57.80
45104;DHT22;30865;51.288;4.572;2023-07-08T02:42:59;19.80;57.80
45104;DHT22;30865;51.288;4.572;2023-07-08T02:45:25;19.90;57.80
45104;DHT22;30865;51.288;4.572;2023-07-08T02:47:50;19.90;57.90
45104;DHT22;30865;51.288;4.572;2023-07-08T02:50:16;20.00;57.50
45104;DHT22;30865;51.288;4.572;2023-07-08T02:52:42;20.20;57.30
45104;DHT22;30865;51.288;4.572;2023-07-08T02:55:08;20.30;57.40
45104;DHT22;30865;51.288;4.572;2023-07-08T02:57:34;20.30;57.50
45104;DHT22;30865;51.288;4.572;2023-07-08T02:59:59;20.40;56.50
45104;DHT22;30865;51.288;4.572;2023-07-08T03:02:26;20.40;56.40
45104;DHT22;30865;51.288;4.572;2023-07-08T03:04:51;20.40;56.20
45104;DHT22;30865;51.288;4.572;2023-07-08T03:07:19;20.30;56.00
45104;DHT22;30865;51.288;4.572;2023-07-08T03:09:45;20.20;56.20
45104;DHT22;30865;51.288;4.572;2023-07-08T03:12:11;20.00;57.10
45104;DHT22;30865;51.288;4.572;2023-07-08T03:14:37;19.80;57.60
45104;DHT22;30865;51.288;4.572;2023-07-08T03:17:03;19.80;57.60
45104;DHT22;30865;51.288;4.572;2023-07-08T03:19:29;19.70;57.80
45104;DHT22;30865;51.288;4.572;2023-07-08T03:21:55;19.90;58.20
45104;DHT22;30865;51.288;4.572;2023-07-08T03:24:20;19.90;59.40
45104;DHT22;30865;51.288;4.572;2023-07-08T03:26:46;19.90;59.60
45104;DHT22;30865;51.288;4.572;2023-07-08T03:29:15;20.00;59.00
45104;DHT22;30865;51.288;4.572;2023-07-08T03:31:40;19.90;59.40
45104;DHT22;30865;51.288;4.572;2023-07-08T03:34:09;20.00;59.70
45104;DHT22;30865;51.288;4.572;2023-07-08T03:36:36;20.10;59.70
45104;DHT22;30865;51.288;4.572;2023-07-08T03:39:05;19.90;59.80
45104;DHT22;30865;51.288;4.572;2023-07-08T03:41:30;19.90;60.50
45104;DHT22;30865;51.288;4.572;2023-07-08T03:43:56;19.90;60.30
45104;DHT22;30865;51.288;4.572;2023-07-08T03:46:21;20.00;60.10
45104;DHT22;30865;51.288;4.572;2023-07-08T03:48:48;20.10;60.60
45104;DHT22;30865;51.288;4.572;2023-07-08T03:51:30;20.20;61.20
45104;DHT22;30865;51.288;4.572;2023-07-08T03:53:57;20.10;60.60
45104;DHT22;30865;51.288;4.572;2023-07-08T03:56:23;20.30;60.80
45104;DHT22;30865;51.288;4.572;2023-07-08T03:58:50;20.30;61.20
45104;DHT22;30865;51.288;4.572;2023-07-08T04:01:18;20.30;59.80
45104;DHT22;30865;51.288;4.572;2023-07-08T04:03:46;20.30;59.30
45104;DHT22;30865;51.288;4.572;2023-07-08T04:06:12;20.20;60.30
45104;DHT22;30865;51.288;4.572;2023-07-08T04:08:38;20.20;59.90
45104;DHT22;30865;51.288;4.572;2023-07-08T04:11:03;20.30;59.90
45104;DHT22;30865;51.288;4.572;2023-07-08T04:13:29;20.30;60.00
45104;DHT22;30865;51.288;4.572;2023-07-08T04:15:56;20.30;59.90
45104;DHT22;30865;51.288;4.572;2023-07-08T04:18:23;20.30;59.70
45104;DHT22;30865;51.288;4.572;2023-07-08T04:20:49;20.30;59.70
45104;DHT22;30865;51.288;4.572;2023-07-08T04:23:18;20.40;59.50
45104;DHT22;30865;51.288;4.572;2023-07-08T04:25:43;20.50;59.70
45104;DHT22;30865;51.288;4.572;2023-07-08T04:28:09;20.60;59.30
45104;DHT22;30865;51.288;4.572;2023-07-08T04:30:34;20.60;58.50
45104;DHT22;30865;51.288;4.572;2023-07-08T04:33:12;20.70;58.60
45104;DHT22;30865;51.288;4.572;2023-07-08T04:35:39;20.70;58.70
45104;DHT22;30865;51.288;4.572;2023-07-08T04:38:06;20.80;58.80
45104;DHT22;30865;51.288;4.572;2023-07-08T04:40:35;20.90;59.10
45104;DHT22;30865;51.288;4.572;2023-07-08T04:43:06;20.90;58.90
45104;DHT22;30865;51.288;4.572;2023-07-08T04:45:31;21.00;58.40
45104;DHT22;30865;51.288;4.572;2023-07-08T04:47:57;21.00;58.30
45104;DHT22;30865;51.288;4.572;2023-07-08T04:50:22;21.00;58.50
45104;DHT22;30865;51.288;4.572;2023-07-08T04:52:49;21.20;58.50
45104;DHT22;30865;51.288;4.572;2023-07-08T04:55:15;21.50;58.60
45104;DHT22;30865;51.288;4.572;2023-07-08T04:57:41;21.40;59.00
45104;DHT22;30865;51.288;4.572;2023-07-08T05:00:09;21.40;59.60
45104;DHT22;30865;51.288;4.572;2023-07-08T05:02:36;21.40;59.90
45104;DHT22;30865;51.288;4.572;2023-07-08T05:05:02;21.20;60.80
45104;DHT22;30865;51.288;4.572;2023-07-08T05:07:27;21.10;61.20
45104;DHT22;30865;51.288;4.572;2023-07-08T05:09:53;21.10;61.00
45104;DHT22;30865;51.288;4.572;2023-07-08T05:12:18;21.30;59.70
45104;DHT22;30865;51.288;4.572;2023-07-08T05:14:44;21.50;58.40
45104;DHT22;30865;51.288;4.572;2023-07-08T05:17:09;21.50;58.80
45104;DHT22;30865;51.288;4.572;2023-07-08T05:19:35;21.70;58.80
45104;DHT22;30865;51.288;4.572;2023-07-08T05:22:01;21.80;58.20
45104;DHT22;30865;51.288;4.572;2023-07-08T05:24:26;22.00;58.20
45104;DHT22;30865;51.288;4.572;2023-07-08T05:26:52;22.10;58.00
45104;DHT22;30865;51.288;4.572;2023-07-08T05:29:17;22.30;57.50
45104;DHT22;30865;51.288;4.572;2023-07-08T05:31:43;22.60;56.10
45104;DHT22;30865;51.288;4.572;2023-07-08T05:34:08;22.90;55.00
45104;DHT22;30865;51.288;4.572;2023-07-08T05:36:34;23.30;55.00
45104;DHT22;30865;51.288;4.572;2023-07-08T05:38:59;23.30;55.20
45104;DHT22;30865;51.288;4.572;2023-07-08T05:41:25;23.40;54.60
45104;DHT22;30865;51.288;4.572;2023-07-08T05:43:51;23.40;54.30
45104;DHT22;30865;51.288;4.572;2023-07-08T05:46:16;23.60;53.80
45104;DHT22;30865;51.288;4.572;2023-07-08T05:48:42;23.50;52.80
45104;DHT22;30865;51.288;4.572;2023-07-08T05:51:07;23.60;52.80
45104;DHT22;30865;51.288;4.572;2023-07-08T05:53:33;23.70;52.60
45104;DHT22;30865;51.288;4.572;2023-07-08T05:55:58;23.90;52.50
45104;DHT22;30865;51.288;4.572;2023-07-08T05:58:24;24.10;51.70
45104;DHT22;30865;51.288;4.572;2023-07-08T06:00:55;24.10;51.30
45104;DHT22;30865;51.288;4.572;2023-07-08T06:03:22;24.30;51.90
45104;DHT22;30865;51.288;4.572;2023-07-08T06:05:47;24.30;50.80
45104;DHT22;30865;51.288;4.572;2023-07-08T06:08:15;24.20;50.70
45104;DHT22;30865;51.288;4.572;2023-07-08T06:10:47;24.10;51.00
45104;DHT22;30865;51.288;4.572;2023-07-08T06:13:13;24.20;51.10
45104;DHT22;30865;51.288;4.572;2023-07-08T06:15:39;24.20;51.00
45104;DHT22;30865;51.288;4.572;2023-07-08T06:18:05;24.20;51.00
45104;DHT22;30865;51.288;4.572;2023-07-08T06:20:30;24.30;51.20
45104;DHT22;30865;51.288;4.572;2023-07-08T06:22:56;24.60;50.90
45104;DHT22;30865;51.288;4.572;2023-07-08T06:25:21;24.80;50.40
45104;DHT22;30865;51.288;4.572;2023-07-08T06:27:47;25.00;50.40
45104;DHT22;30865;51.288;4.572;2023-07-08T06:30:12;24.80;50.70
45104;DHT22;30865;51.288;4.572;2023-07-08T06:32:38;24.80;50.70
45104;DHT22;30865;51.288;4.572;2023-07-08T06:35:04;25.10;50.60
45104;DHT22;30865;51.288;4.572;2023-07-08T06:37:30;25.20;50.00
45104;DHT22;30865;51.288;4.572;2023-07-08T06:39:55;25.30;50.10
45104;DHT22;30865;51.288;4.572;2023-07-08T06:42:21;25.10;50.10
45104;DHT22;30865;51.288;4.572;2023-07-08T06:44:47;25.00;50.30
45104;DHT22;30865;51.288;4.572;2023-07-08T06:47:19;25.00;50.70
45104;DHT22;30865;51.288;4.572;2023-07-08T06:49:46;25.10;50.80
45104;DHT22;30865;51.288;4.572;2023-07-08T06:52:11;25.20;51.00
45104;DHT22;30865;51.288;4.572;2023-07-08T06:54:37;25.30;51.40
45104;DHT22;30865;51.288;4.572;2023-07-08T06:57:04;25.30;51.40
45104;DHT22;30865;51.288;4.572;2023-07-08T06:59:30;25.40;51.30
45104;DHT22;30865;51.288;4.572;2023-07-08T07:01:55;25.60;50.90
45104;DHT22;30865;51.288;4.572;2023-07-08T07:04:21;25.70;51.40
45104;DHT22;30865;51.288;4.572;2023-07-08T07:06:46;25.50;51.10
45104;DHT22;30865;51.288;4.572;2023-07-08T07:09:12;25.60;50.90
45104;DHT22;30865;51.288;4.572;2023-07-08T07:11:37;25.70;50.80
45104;DHT22;30865;51.288;4.572;2023-07-08T07:14:03;25.80;50.40
45104;DHT22;30865;51.288;4.572;2023-07-08T07:16:29;26.10;50.30
45104;DHT22;30865;51.288;4.572;2023-07-08T07:18:54;26.10;49.80
45104;DHT22;30865;51.288;4.572;2023-07-08T07:21:20;26.10;50.10
45104;DHT22;30865;51.288;4.572;2023-07-08T07:23:46;26.10;50.60
45104;DHT22;30865;51.288;4.572;2023-07-08T07:26:11;26.10;50.30
45104;DHT22;30865;51.288;4.572;2023-07-08T07:28:37;26.20;50.40
45104;DHT22;30865;51.288;4.572;2023-07-08T07:31:03;26.10;50.40
45104;DHT22;30865;51.288;4.572;2023-07-08T07:33:30;26.40;49.90
45104;DHT22;30865;51.288;4.572;2023-07-08T07:35:56;26.50;50.00
45104;DHT22;30865;51.288;4.572;2023-07-08T07:38:21;26.60;50.00
45104;DHT22;30865;51.288;4.572;2023-07-08T07:40:52;26.70;49.70
45104;DHT22;30865;51.288;4.572;2023-07-08T07:43:17;26.80;49.50
45104;DHT22;30865;51.288;4.572;2023-07-08T07:45:43;26.80;49.60
45104;DHT22;30865;51.288;4.572;2023-07-08T07:48:08;26.60;50.00
45104;DHT22;30865;51.288;4.572;2023-07-08T07:50:34;26.60;50.40
45104;DHT22;30865;51.288;4.572;2023-07-08T07:53:00;26.60;50.70
45104;DHT22;30865;51.288;4.572;2023-07-08T07:55:25;26.60;50.80
45104;DHT22;30865;51.288;4.572;2023-07-08T07:57:51;26.60;50.90
45104;DHT22;30865;51.288;4.572;2023-07-08T08:00:16;26.80;51.30
45104;DHT22;30865;51.288;4.572;2023-07-08T08:02:42;27.00;50.20
45104;DHT22;30865;51.288;4.572;2023-07-08T08:05:08;27.50;49.60
45104;DHT22;30865;51.288;4.572;2023-07-08T08:07:34;27.70;48.70
45104;DHT22;30865;51.288;4.572;2023-07-08T08:09:59;28.20;48.20
45104;DHT22;30865;51.288;4.572;2023-07-08T08:12:25;28.40;47.50
45104;DHT22;30865;51.288;4.572;2023-07-08T08:14:51;28.70;47.30
45104;DHT22;30865;51.288;4.572;2023-07-08T08:17:16;28.60;47.20
45104;DHT22;30865;51.288;4.572;2023-07-08T08:19:42;28.70;47.10
45104;DHT22;30865;51.288;4.572;2023-07-08T08:22:07;28.40;47.70
45104;DHT22;30865;51.288;4.572;2023-07-08T08:24:33;28.40;47.90
45104;DHT22;30865;51.288;4.572;2023-07-08T08:26:59;28.10;48.00
45104;DHT22;30865;51.288;4.572;2023-07-08T08:29:25;28.10;48.40
45104;DHT22;30865;51.288;4.572;2023-07-08T08:31:50;28.00;48.30
45104;DHT22;30865;51.288;4.572;2023-07-08T08:34:16;28.10;47.90
45104;DHT22;30865;51.288;4.572;2023-07-08T08:36:42;28.30;47.60
45104;DHT22;30865;51.288;4.572;2023-07-08T08:39:08;28.50;47.60
45104;DHT22;30865;51.288;4.572;2023-07-08T08:41:37;28.40;47.60
45104;DHT22;30865;51.288;4.572;2023-07-08T08:44:04;28.20;47.70
45104;DHT22;30865;51.288;4.572;2023-07-08T08:46:41;28.30;47.70
45104;DHT22;30865;51.288;4.572;2023-07-08T08:49:25;28.30;47.80
45104;DHT22;30865;51.288;4.572;2023-07-08T08:51:52;28.30;47.90
45104;DHT22;30865;51.288;4.572;2023-07-08T08:54:18;28.30;47.90
45104;DHT22;30865;51.288;4.572;2023-07-08T08:59:41;28.30;48.00
45104;DHT22;30865;51.288;4.572;2023-07-08T09:02:28;28.30;48.40
45104;DHT22;30865;51.288;4.572;2023-07-08T09:05:04;28.50;48.00
45104;DHT22;30865;51.288;4.572;2023-07-08T09:07:37;29.10;47.00
45104;DHT22;30865;51.288;4.572;2023-07-08T09:10:19;29.50;46.30
45104;DHT22;30865;51.288;4.572;2023-07-08T09:12:49;30.00;45.30
45104;DHT22;30865;51.288;4.572;2023-07-08T09:15:16;30.20;44.70
45104;DHT22;30865;51.288;4.572;2023-07-08T09:17:41;30.40;44.40
45104;DHT22;30865;51.288;4.572;2023-07-08T09:20:25;30.50;44.40
45104;DHT22;30865;51.288;4.572;2023-07-08T09:23:22;30.00;44.80
45104;DHT22;30865;51.288;4.572;2023-07-08T09:26:19;29.90;44.70
45104;DHT22;30865;51.288;4.572;2023-07-08T09:28:47;29.70;45.10
45104;DHT22;30865;51.288;4.572;2023-07-08T09:31:27;29.90;44.80
45104;DHT22;30865;51.288;4.572;2023-07-08T09:34:17;30.30;43.70
45104;DHT22;30865;51.288;4.572;2023-07-08T09:36:46;29.80;43.10
45104;DHT22;30865;51.288;4.572;2023-07-08T09:39:16;29.90;44.40
45104;DHT22;30865;51.288;4.572;2023-07-08T09:41:44;30.50;43.30
45104;DHT22;30865;51.288;4.572;2023-07-08T09:44:25;29.90;44.30
45104;DHT22;30865;51.288;4.572;2023-07-08T09:46:56;29.90;44.00
45104;DHT22;30865;51.288;4.572;2023-07-08T09:49:32;30.00;44.20
45104;DHT22;30865;51.288;4.572;2023-07-08T09:51:59;30.00;44.30
45104;DHT22;30865;51.288;4.572;2023-07-08T09:54:26;30.20;44.20
45104;DHT22;30865;51.288;4.572;2023-07-08T09:56:58;30.40;42.80
45104;DHT22;30865;51.288;4.572;2023-07-08T09:59:31;30.50;42.50
45104;DHT22;30865;51.288;4.572;2023-07-08T10:05:12;30.90;42.40
45104;DHT22;30865;51.288;4.572;2023-07-08T10:07:38;30.40;42.20
45104;DHT22;30865;51.288;4.572;2023-07-08T10:10:08;31.00;42.20
45104;DHT22;30865;51.288;4.572;2023-07-08T10:12:38;30.80;42.60
45104;DHT22;30865;51.288;4.572;2023-07-08T10:15:17;30.60;43.30
45104;DHT22;30865;51.288;4.572;2023-07-08T10:17:45;30.30;43.60
45104;DHT22;30865;51.288;4.572;2023-07-08T10:20:12;29.60;44.40
45104;DHT22;30865;51.288;4.572;2023-07-08T10:25:56;29.60;45.00
45104;DHT22;30865;51.288;4.572;2023-07-08T10:28:33;29.50;45.30
45104;DHT22;30865;51.288;4.572;2023-07-08T10:31:06;29.50;45.00
45104;DHT22;30865;51.288;4.572;2023-07-08T10:33:38;29.60;44.30
45104;DHT22;30865;51.288;4.572;2023-07-08T10:36:22;29.60;44.00
45104;DHT22;30865;51.288;4.572;2023-07-08T10:39:32;30.40;43.20
45104;DHT22;30865;51.288;4.572;2023-07-08T10:45:31;30.70;42.10
45104;DHT22;30865;51.288;4.572;2023-07-08T10:47:58;30.20;43.10
45104;DHT22;30865;51.288;4.572;2023-07-08T10:53:30;30.80;41.50
45104;DHT22;30865;51.288;4.572;2023-07-08T10:56:18;30.90;41.10
45104;DHT22;30865;51.288;4.572;2023-07-08T11:02:00;30.80;41.30
45104;DHT22;30865;51.288;4.572;2023-07-08T11:05:09;30.70;41.20
45104;DHT22;30865;51.288;4.572;2023-07-08T11:07:51;30.40;41.70
45104;DHT22;30865;51.288;4.572;2023-07-08T11:10:25;30.60;41.50
45104;DHT22;30865;51.288;4.572;2023-07-08T11:12:59;30.70;41.50
45104;DHT22;30865;51.288;4.572;2023-07-08T11:20:56;31.40;40.20
45104;DHT22;30865;51.288;4.572;2023-07-08T11:23:41;31.60;39.60
45104;DHT22;30865;51.288;4.572;2023-07-08T11:26:19;31.10;39.80
45104;DHT22;30865;51.288;4.572;2023-07-08T11:28:48;31.50;39.60
45104;DHT22;30865;51.288;4.572;2023-07-08T11:31:15;31.80;39.40
45104;DHT22;30865;51.288;4.572;2023-07-08T11:33:41;32.00;39.20
45104;DHT22;30865;51.288;4.572;2023-07-08T11:36:09;31.90;39.40
45104;DHT22;30865;51.288;4.572;2023-07-08T11:38:35;31.90;39.30
45104;DHT22;30865;51.288;4.572;2023-07-08T11:41:12;31.80;40.00
45104;DHT22;30865;51.288;4.572;2023-07-08T11:43:58;31.50;39.70
45104;DHT22;30865;51.288;4.572;2023-07-08T11:46:29;31.70;39.30
45104;DHT22;30865;51.288;4.572;2023-07-08T11:49:00;32.10;38.70
45104;DHT22;30865;51.288;4.572;2023-07-08T11:51:31;32.20;38.00
45104;DHT22;30865;51.288;4.572;2023-07-08T11:54:26;32.40;37.70
45104;DHT22;30865;51.288;4.572;2023-07-08T11:59:26;31.90;38.10
45104;DHT22;30865;51.288;4.572;2023-07-08T12:02:09;31.80;38.20
45104;DHT22;30865;51.288;4.572;2023-07-08T12:07:20;32.30;37.70
45104;DHT22;30865;51.288;4.572;2023-07-08T12:09:58;32.70;36.90
45104;DHT22;30865;51.288;4.572;2023-07-08T12:12:35;32.40;37.10
45104;DHT22;30865;51.288;4.572;2023-07-08T12:15:15;32.50;37.10
45104;DHT22;30865;51.288;4.572;2023-07-08T12:17:42;32.50;37.60
45104;DHT22;30865;51.288;4.572;2023-07-08T12:20:19;32.70;36.70
45104;DHT22;30865;51.288;4.572;2023-07-08T12:22:46;32.70;36.40
45104;DHT22;30865;51.288;4.572;2023-07-08T12:25:18;32.90;36.50
45104;DHT22;30865;51.288;4.572;2023-07-08T12:27:45;32.90;36.10
45104;DHT22;30865;51.288;4.572;2023-07-08T12:30:12;33.00;35.80
45104;DHT22;30865;51.288;4.572;2023-07-08T12:32:39;32.80;35.80
45104;DHT22;30865;51.288;4.572;2023-07-08T12:35:05;32.80;35.80
45104;DHT22;30865;51.288;4.572;2023-07-08T12:37:33;32.90;35.50
45104;DHT22;30865;51.288;4.572;2023-07-08T12:40:00;32.90;36.40
45104;DHT22;30865;51.288;4.572;2023-07-08T12:42:30;33.50;35.70
45104;DHT22;30865;51.288;4.572;2023-07-08T12:44:56;33.70;35.10
45104;DHT22;30865;51.288;4.572;2023-07-08T12:47:22;33.00;35.50
45104;DHT22;30865;51.288;4.572;2023-07-08T12:49:47;32.90;35.70
45104;DHT22;30865;51.288;4.572;2023-07-08T12:52:23;33.00;35.30
45104;DHT22;30865;51.288;4.572;2023-07-08T12:54:49;32.80;36.10
45104;DHT22;30865;51.288;4.572;2023-07-08T12:57:16;33.60;35.10
45104;DHT22;30865;51.288;4.572;2023-07-08T12:59:42;33.70;35.20
45104;DHT22;30865;51.288;4.572;2023-07-08T13:02:21;33.80;35.10
45104;DHT22;30865;51.288;4.572;2023-07-08T13:04:51;34.20;34.50
45104;DHT22;30865;51.288;4.572;2023-07-08T13:07:32;34.20;34.00
45104;DHT22;30865;51.288;4.572;2023-07-08T13:09:59;34.40;33.80
45104;DHT22;30865;51.288;4.572;2023-07-08T13:12:26;34.30;33.10
45104;DHT22;30865;51.288;4.572;2023-07-08T13:14:53;34.20;33.50
45104;DHT22;30865;51.288;4.572;2023-07-08T13:17:20;34.40;33.40
45104;DHT22;30865;51.288;4.572;2023-07-08T13:19:46;34.40;32.90
45104;DHT22;30865;51.288;4.572;2023-07-08T13:22:20;34.40;33.00
45104;DHT22;30865;51.288;4.572;2023-07-08T13:24:46;34.50;32.30
45104;DHT22;30865;51.288;4.572;2023-07-08T13:27:25;34.90;31.90
45104;DHT22;30865;51.288;4.572;2023-07-08T13:29:52;34.60;32.70
45104;DHT22;30865;51.288;4.572;2023-07-08T13:32:18;34.30;33.60
45104;DHT22;30865;51.288;4.572;2023-07-08T13:34:43;34.10;34.60
45104;DHT22;30865;51.288;4.572;2023-07-08T13:37:12;34.30;34.00
45104;DHT22;30865;51.288;4.572;2023-07-08T13:39:42;35.00;32.30
45104;DHT22;30865;51.288;4.572;2023-07-08T13:42:08;35.00;31.70
45104;DHT22;30865;51.288;4.572;2023-07-08T13:44:34;35.10;31.20
45104;DHT22;30865;51.288;4.572;2023-07-08T13:47:00;35.30;30.30
45104;DHT22;30865;51.288;4.572;2023-07-08T13:49:42;35.50;30.10
45104;DHT22;30865;51.288;4.572;2023-07-08T13:52:20;35.60;30.00
45104;DHT22;30865;51.288;4.572;2023-07-08T13:54:50;35.50;30.20
45104;DHT22;30865;51.288;4.572;2023-07-08T13:57:18;35.70;30.10
45104;DHT22;30865;51.288;4.572;2023-07-08T13:59:44;35.80;30.60
45104;DHT22;30865;51.288;4.572;2023-07-08T14:02:22;35.50;30.20
45104;DHT22;30865;51.288;4.572;2023-07-08T14:04:49;35.90;30.50
45104;DHT22;30865;51.288;4.572;2023-07-08T14:07:18;35.60;31.30
45104;DHT22;30865;51.288;4.572;2023-07-08T14:09:43;35.60;31.10
45104;DHT22;30865;51.288;4.572;2023-07-08T14:12:09;35.00;31.70
45104;DHT22;30865;51.288;4.572;2023-07-08T14:14:35;34.90;31.60
45104;DHT22;30865;51.288;4.572;2023-07-08T14:17:01;35.20;31.80
45104;DHT22;30865;51.288;4.572;2023-07-08T14:19:29;35.30;31.60
45104;DHT22;30865;51.288;4.572;2023-07-08T14:22:02;36.30;30.60
45104;DHT22;30865;51.288;4.572;2023-07-08T14:24:31;36.20;30.30
45104;DHT22;30865;51.288;4.572;2023-07-08T14:26:56;36.80;30.00
45104;DHT22;30865;51.288;4.572;2023-07-08T14:29:22;36.90;29.80
45104;DHT22;30865;51.288;4.572;2023-07-08T14:31:47;36.80;30.00
45104;DHT22;30865;51.288;4.572;2023-07-08T14:34:20;37.10;30.00
45104;DHT22;30865;51.288;4.572;2023-07-08T14:36:47;37.70;29.50
45104;DHT22;30865;51.288;4.572;2023-07-08T14:39:15;37.90;29.90
45104;DHT22;30865;51.288;4.572;2023-07-08T14:41:41;37.80;28.90
45104;DHT22;30865;51.288;4.572;2023-07-08T14:44:24;38.50;29.30
45104;DHT22;30865;51.288;4.572;2023-07-08T14:46:51;38.50;29.10
45104;DHT22;30865;51.288;4.572;2023-07-08T14:49:20;38.70;28.60
45104;DHT22;30865;51.288;4.572;2023-07-08T14:51:46;36.60;29.40
45104;DHT22;30865;51.288;4.572;2023-07-08T14:54:12;36.90;29.30
45104;DHT22;30865;51.288;4.572;2023-07-08T14:56:39;37.80;28.90
45104;DHT22;30865;51.288;4.572;2023-07-08T14:59:05;37.80;29.70
45104;DHT22;30865;51.288;4.572;2023-07-08T15:01:31;38.10;29.40
45104;DHT22;30865;51.288;4.572;2023-07-08T15:03:57;38.60;28.80
45104;DHT22;30865;51.288;4.572;2023-07-08T15:06:23;39.00;28.70
45104;DHT22;30865;51.288;4.572;2023-07-08T15:08:49;39.10;28.40
45104;DHT22;30865;51.288;4.572;2023-07-08T15:11:16;39.10;28.10
45104;DHT22;30865;51.288;4.572;2023-07-08T15:13:42;39.50;27.90
45104;DHT22;30865;51.288;4.572;2023-07-08T15:16:12;37.90;27.90
45104;DHT22;30865;51.288;4.572;2023-07-08T15:18:39;38.40;28.20
45104;DHT22;30865;51.288;4.572;2023-07-08T15:21:13;39.30;27.80
45104;DHT22;30865;51.288;4.572;2023-07-08T15:23:39;39.70;27.60
45104;DHT22;30865;51.288;4.572;2023-07-08T15:26:05;39.40;27.40
45104;DHT22;30865;51.288;4.572;2023-07-08T15:28:48;39.40;28.40
45104;DHT22;30865;51.288;4.572;2023-07-08T15:31:16;39.30;27.60
45104;DHT22;30865;51.288;4.572;2023-07-08T15:33:43;39.00;27.70
45104;DHT22;30865;51.288;4.572;2023-07-08T15:36:10;37.90;28.60
45104;DHT22;30865;51.288;4.572;2023-07-08T15:38:36;38.80;28.40
45104;DHT22;30865;51.288;4.572;2023-07-08T15:41:02;38.20;28.80
45104;DHT22;30865;51.288;4.572;2023-07-08T15:43:29;37.40;29.50
45104;DHT22;30865;51.288;4.572;2023-07-08T15:45:55;37.00;30.00
45104;DHT22;30865;51.288;4.572;2023-07-08T15:48:20;37.10;29.60
45104;DHT22;30865;51.288;4.572;2023-07-08T15:50:47;36.50;30.00
45104;DHT22;30865;51.288;4.572;2023-07-08T15:53:14;36.50;29.70
45104;DHT22;30865;51.288;4.572;2023-07-08T15:55:42;36.70;29.90
45104;DHT22;30865;51.288;4.572;2023-07-08T15:58:32;37.70;29.30
45104;DHT22;30865;51.288;4.572;2023-07-08T16:01:00;38.70;28.50
45104;DHT22;30865;51.288;4.572;2023-07-08T16:03:31;38.70;28.40
45104;DHT22;30865;51.288;4.572;2023-07-08T16:05:58;38.10;29.00
45104;DHT22;30865;51.288;4.572;2023-07-08T16:08:24;37.90;29.00
45104;DHT22;30865;51.288;4.572;2023-07-08T16:10:54;38.40;28.30
45104;DHT22;30865;51.288;4.572;2023-07-08T16:38:08;36.00;29.40
45104;DHT22;30865;51.288;4.572;2023-07-08T16:40:34;36.40;29.10
45104;DHT22;30865;51.288;4.572;2023-07-08T16:43:00;35.30;29.70